Time;durP1;ratioP1;P1;durP2;ratioP2;P2;SDS_P1;SDS_P2;PMS_P1;PMS_P2;Temp;Humidity;BMP_temperature;BMP_pressure;BME280_temperature;BME280_humidity;BME280_pressure;Samples;Min_cycle;Max_cycle;Signal;HPM_P1;HPM_P2
2022/07/13 00:00:38;;;;;;;0.20;0.20;;;;;;;14.89;89.68;98065.76;1695838;84;20892;-67
2022/07/13 00:03:05;;;;;;;0.30;0.10;;;;;;;14.91;89.86;98072.52;1698559;84;20987;-67
2022/07/13 00:05:32;;;;;;;0.20;0.20;;;;;;;14.95;89.88;98068.83;1698440;84;20995;-67
2022/07/13 00:07:58;;;;;;;0.10;0.10;;;;;;;14.98;89.91;98065.69;1699520;84;21292;-66
2022/07/13 00:10:26;;;;;;;0.57;0.30;;;;;;;15.02;89.93;98062.83;1688826;84;21043;-67
2022/07/13 00:12:52;;;;;;;0.53;0.20;;;;;;;15.05;89.78;98059.69;1695065;84;21492;-66
2022/07/13 00:15:19;;;;;;;0.20;0.13;;;;;;;15.08;89.68;98058.70;1695086;84;21470;-66
2022/07/13 00:17:45;;;;;;;0.30;0.30;;;;;;;15.10;89.60;98047.23;1693217;84;20969;-66
2022/07/13 00:20:13;;;;;;;0.10;0.10;;;;;;;15.11;89.46;98051.55;1693798;84;20996;-64
2022/07/13 00:22:40;;;;;;;0.10;0.10;;;;;;;15.12;89.50;98045.13;1694192;84;21503;-66
2022/07/13 00:25:08;;;;;;;0.30;0.13;;;;;;;15.14;89.42;98047.59;1698208;84;20919;-65
2022/07/13 00:27:35;;;;;;;0.23;0.20;;;;;;;15.14;89.32;98043.57;1697558;84;20963;-64
2022/07/13 00:30:03;;;;;;;0.60;0.30;;;;;;;15.16;89.35;98054.86;1699092;84;20960;-65
2022/07/13 00:32:30;;;;;;;0.20;0.20;;;;;;;15.16;89.42;98047.65;1699366;84;22049;-65
2022/07/13 00:34:56;;;;;;;1.20;0.20;;;;;;;15.19;89.54;98047.70;1695914;84;21003;-66
2022/07/13 00:37:23;;;;;;;1.27;0.20;;;;;;;15.20;89.53;98039.97;1694938;84;20928;-65
2022/07/13 00:39:49;;;;;;;1.55;0.20;;;;;;;15.19;89.51;98037.81;1694667;84;21030;-66
2022/07/13 00:42:16;;;;;;;0.47;0.37;;;;;;;15.17;89.56;98042.56;1696857;84;21022;-65
2022/07/13 00:44:42;;;;;;;0.30;0.30;;;;;;;15.17;89.78;98034.52;1695423;84;21239;-65
2022/07/13 00:47:09;;;;;;;0.62;0.35;;;;;;;15.19;89.92;98041.83;1697812;84;20940;-65
2022/07/13 00:49:35;;;;;;;1.90;0.50;;;;;;;15.22;90.02;98025.81;1701087;83;20874;-65
2022/07/13 00:52:02;;;;;;;1.35;0.55;;;;;;;15.22;90.02;98042.70;1698251;83;20980;-66
2022/07/13 00:54:29;;;;;;;0.47;0.40;;;;;;;15.22;90.08;98041.88;1699226;83;21174;-66
2022/07/13 00:56:57;;;;;;;0.70;0.33;;;;;;;15.21;90.05;98039.72;1696495;83;21254;-66
2022/07/13 00:59:24;;;;;;;0.30;0.30;;;;;;;15.25;90.18;98044.89;1661592;85;20965;-66
2022/07/13 01:01:52;;;;;;;0.60;0.33;;;;;;;15.28;90.15;98036.91;1662795;85;21062;-66
2022/07/13 01:04:23;;;;;;;0.98;0.37;;;;;;;15.31;90.10;98043.14;1660250;84;21016;-66
2022/07/13 01:06:54;;;;;;;0.95;0.30;;;;;;;15.33;90.01;98041.86;1676752;84;21588;-65
2022/07/13 01:09:24;;;;;;;0.40;0.40;;;;;;;15.35;89.94;98040.30;1643407;87;21157;-66
2022/07/13 01:11:52;;;;;;;0.53;0.53;;;;;;;15.34;89.89;98040.81;1648114;84;21683;-66
2022/07/13 01:14:20;;;;;;;1.30;0.30;;;;;;;15.37;89.88;98040.35;1671615;84;21023;-65
2022/07/13 01:16:46;;;;;;;0.28;0.20;;;;;;;15.39;89.84;98033.41;1644416;87;20976;-65
2022/07/13 01:19:14;;;;;;;0.42;0.33;;;;;;;15.42;89.89;98046.34;1638185;86;21536;-66
2022/07/13 01:21:44;;;;;;;0.25;0.20;;;;;;;15.44;89.85;98037.02;1656006;84;21251;-66
2022/07/13 01:24:11;;;;;;;0.40;0.30;;;;;;;15.48;89.74;98040.08;1634347;87;21015;-66
2022/07/13 01:26:39;;;;;;;2.35;0.42;;;;;;;15.52;89.59;98041.22;1647843;86;20960;-65
2022/07/13 01:29:07;;;;;;;0.55;0.30;;;;;;;15.53;89.54;98037.50;1637747;86;21046;-65
2022/07/13 01:31:38;;;;;;;2.37;0.70;;;;;;;15.54;89.38;98040.45;1684143;84;20944;-65
2022/07/13 01:34:05;;;;;;;1.00;0.30;;;;;;;15.53;89.31;98043.38;1665929;84;21250;-65
2022/07/13 01:36:36;;;;;;;0.72;0.20;;;;;;;15.52;89.22;98038.54;1671234;84;21506;-66
2022/07/13 01:39:05;;;;;;;1.20;0.40;;;;;;;15.51;89.34;98036.93;1613565;87;21532;-65
2022/07/13 01:41:31;;;;;;;1.22;0.33;;;;;;;15.53;89.41;98033.48;1671817;84;20959;-65
2022/07/13 01:43:59;;;;;;;1.12;0.30;;;;;;;15.53;89.36;98037.50;1648091;86;21024;-68
2022/07/13 01:46:28;;;;;;;1.82;0.30;;;;;;;15.52;89.37;98042.56;1643089;86;21535;-66
2022/07/13 01:48:54;;;;;;;1.27;0.30;;;;;;;15.54;89.44;98036.98;1642468;86;21029;-65
2022/07/13 01:51:20;;;;;;;1.47;0.20;;;;;;;15.56;89.37;98033.53;1646564;87;21013;-66
2022/07/13 01:53:47;;;;;;;0.40;0.35;;;;;;;15.56;89.43;98033.02;1643975;86;20987;-66
2022/07/13 01:56:14;;;;;;;1.98;0.47;;;;;;;15.56;89.50;98031.67;1640865;86;21002;-66
2022/07/13 01:58:43;;;;;;;0.28;0.28;;;;;;;15.54;89.64;98043.13;1659683;85;20941;-67
2022/07/13 02:01:10;;;;;;;0.62;0.20;;;;;;;15.55;89.88;98042.09;1634661;87;21021;-66
2022/07/13 02:03:37;;;;;;;0.47;0.30;;;;;;;15.57;89.90;98039.16;1659679;86;21029;-65
2022/07/13 02:06:05;;;;;;;0.40;0.20;;;;;;;15.58;89.78;98043.48;1639567;87;21515;-67
2022/07/13 02:08:32;;;;;;;1.25;0.98;;;;;;;15.61;89.70;98042.50;1659748;86;21076;-67
2022/07/13 02:11:00;;;;;;;0.55;0.30;;;;;;;15.66;89.65;98039.09;1659680;86;21284;-66
2022/07/13 02:13:27;;;;;;;1.40;0.23;;;;;;;15.67;89.51;98037.51;1659604;86;21080;-67
2022/07/13 02:15:53;;;;;;;0.45;0.30;;;;;;;15.69;89.45;98038.11;1665580;86;21000;-66
2022/07/13 02:18:25;;;;;;;1.30;0.80;;;;;;;15.73;89.39;98041.93;1641202;84;21552;-66
2022/07/13 02:20:54;;;;;;;0.57;0.45;;;;;;;15.76;89.36;98043.32;1663236;86;20962;-65
2022/07/13 02:23:21;;;;;;;0.95;0.30;;;;;;;15.73;89.35;98036.57;1640911;86;21227;-67
2022/07/13 02:25:49;;;;;;;0.42;0.30;;;;;;;15.73;89.50;98030.39;1667489;86;21439;-68
2022/07/13 02:28:15;;;;;;;1.75;0.40;;;;;;;15.71;89.49;98036.00;1645386;86;21079;-67
2022/07/13 02:30:42;;;;;;;1.65;0.40;;;;;;;15.71;89.63;98033.84;1664859;85;21074;-67
2022/07/13 02:33:09;;;;;;;0.33;0.30;;;;;;;15.70;89.55;98029.00;1660290;85;21076;-66
2022/07/13 02:35:36;;;;;;;0.42;0.40;;;;;;;15.71;89.46;98027.95;1635297;87;21259;-66
2022/07/13 02:38:04;;;;;;;0.20;0.20;;;;;;;15.73;89.41;98035.23;1659624;86;21617;-66
2022/07/13 02:40:31;;;;;;;0.20;0.20;;;;;;;15.73;89.21;98033.89;1659682;86;21620;-67
2022/07/13 02:42:58;;;;;;;0.80;0.37;;;;;;;15.73;89.12;98036.57;1654747;86;21364;-67
2022/07/13 02:45:24;;;;;;;0.25;0.25;;;;;;;15.75;89.05;98037.14;1659623;86;21019;-66
2022/07/13 02:47:51;;;;;;;0.57;0.50;;;;;;;15.74;88.88;98031.51;1659638;86;21489;-68
2022/07/13 02:50:18;;;;;;;3.10;0.40;;;;;;;15.72;88.81;98037.61;1643318;86;20912;-66
2022/07/13 02:52:45;;;;;;;0.53;0.20;;;;;;;15.70;88.87;98029.00;1636507;86;20994;-66
2022/07/13 02:55:11;;;;;;;0.35;0.20;;;;;;;15.69;88.76;98032.75;1628257;86;21045;-66
2022/07/13 02:57:38;;;;;;;1.30;0.40;;;;;;;15.69;88.77;98030.59;1628256;86;21450;-66
2022/07/13 03:00:08;;;;;;;0.90;0.40;;;;;;;15.69;88.84;98038.11;1628160;86;22190;-66
2022/07/13 03:02:35;;;;;;;1.90;0.70;;;;;;;15.68;88.80;98031.62;1628244;86;20956;-66
2022/07/13 03:05:04;;;;;;;1.05;0.45;;;;;;;15.71;88.76;98032.50;1628230;86;21008;-66
2022/07/13 03:07:31;;;;;;;0.72;0.35;;;;;;;15.74;88.67;98040.89;1628282;86;21020;-66
2022/07/13 03:09:58;;;;;;;0.65;0.37;;;;;;;15.76;88.58;98042.80;1628230;86;21095;-65
2022/07/13 03:12:26;;;;;;;0.30;0.30;;;;;;;15.80;88.55;98043.16;1628677;86;21282;-65
2022/07/13 03:14:53;;;;;;;0.90;0.40;;;;;;;15.84;88.49;98046.97;1628381;86;20959;-65
2022/07/13 03:17:19;;;;;;;0.60;0.60;;;;;;;15.87;88.32;98038.45;1628290;86;21011;-65
2022/07/13 03:19:46;;;;;;;0.47;0.33;;;;;;;15.86;88.08;98041.66;1628446;86;20939;-65
2022/07/13 03:22:13;;;;;;;0.75;0.37;;;;;;;15.85;87.87;98033.87;1628285;86;21050;-66
2022/07/13 03:24:40;;;;;;;4.47;0.40;;;;;;;15.81;87.70;98044.24;1628494;86;21516;-66
2022/07/13 03:27:07;;;;;;;0.40;0.40;;;;;;;15.80;87.77;98045.83;1602527;86;20916;-66
2022/07/13 03:29:33;;;;;;;1.12;0.33;;;;;;;15.82;87.83;98046.41;1628505;86;20968;-66
2022/07/13 03:32:01;;;;;;;0.70;0.40;;;;;;;15.84;87.81;98053.16;1628278;86;21040;-66
2022/07/13 03:34:28;;;;;;;1.05;0.35;;;;;;;15.85;87.67;98045.38;1620487;86;20984;-66
2022/07/13 03:36:57;;;;;;;0.62;0.20;;;;;;;15.85;87.63;98046.72;1627767;86;21032;-66
2022/07/13 03:39:23;;;;;;;1.45;0.40;;;;;;;15.85;87.69;98053.98;1627783;86;20941;-66
2022/07/13 03:41:50;;;;;;;0.33;0.30;;;;;;;15.82;87.57;98051.25;1627837;86;21549;-66
2022/07/13 03:44:18;;;;;;;1.65;0.40;;;;;;;15.80;87.71;98049.30;1627679;86;21709;-66
2022/07/13 03:46:45;;;;;;;0.55;0.50;;;;;;;15.83;87.79;98049.35;1627779;86;20917;-65
2022/07/13 03:49:12;;;;;;;1.75;0.50;;;;;;;15.82;87.88;98054.45;1627794;86;21604;-65
2022/07/13 03:51:40;;;;;;;0.47;0.45;;;;;;;15.83;88.05;98060.08;1654009;84;20946;-66
2022/07/13 03:54:07;;;;;;;2.33;0.40;;;;;;;15.82;88.24;98063.83;1686842;85;20946;-67
2022/07/13 03:56:35;;;;;;;1.02;0.40;;;;;;;15.80;88.39;98057.34;1677436;84;20967;-66
2022/07/13 03:59:02;;;;;;;0.50;0.50;;;;;;;15.82;88.58;98063.83;1696559;84;20975;-67
2022/07/13 04:01:29;;;;;;;0.40;0.30;;;;;;;15.83;88.68;98063.58;1696648;84;21573;-67
2022/07/13 04:03:56;;;;;;;0.37;0.23;;;;;;;15.84;88.61;98063.06;1682739;83;20902;-66
2022/07/13 04:06:25;;;;;;;0.85;0.20;;;;;;;15.84;88.78;98062.54;1683159;84;20948;-64
2022/07/13 04:08:52;;;;;;;0.88;0.40;;;;;;;15.89;88.80;98056.45;1691926;84;21009;-67
2022/07/13 04:11:19;;;;;;;0.37;0.30;;;;;;;15.92;88.68;98055.98;1683839;84;21008;-66
2022/07/13 04:13:45;;;;;;;0.45;0.40;;;;;;;15.92;88.55;98067.53;1693567;84;21205;-67
2022/07/13 04:16:13;;;;;;;2.85;0.57;;;;;;;15.90;88.49;98058.09;1691466;84;20956;-67
2022/07/13 04:18:40;;;;;;;1.10;0.45;;;;;;;15.92;88.61;98066.72;1696871;84;21584;-66
2022/07/13 04:21:07;;;;;;;1.15;0.28;;;;;;;15.95;88.83;98067.06;1694880;84;20991;-65
2022/07/13 04:23:34;;;;;;;1.15;0.40;;;;;;;16.01;88.88;98066.09;1692900;84;21557;-67
2022/07/13 04:26:00;;;;;;;2.12;0.30;;;;;;;16.08;88.72;98070.51;1699223;84;21856;-67
2022/07/13 04:28:27;;;;;;;0.30;0.30;;;;;;;16.14;88.55;98069.56;1692072;84;20914;-66
2022/07/13 04:30:54;;;;;;;0.57;0.33;;;;;;;16.16;88.30;98069.61;1692468;84;21055;-66
2022/07/13 04:33:22;;;;;;;0.35;0.35;;;;;;;16.16;88.19;98060.22;1696209;84;20987;-66
2022/07/13 04:35:48;;;;;;;0.50;0.30;;;;;;;16.19;88.11;98058.92;1694934;84;21038;-67
2022/07/13 04:38:15;;;;;;;1.42;0.30;;;;;;;16.20;88.08;98060.02;1696696;84;21252;-67
2022/07/13 04:40:44;;;;;;;2.08;1.37;;;;;;;16.20;87.99;98065.90;1696622;84;20975;-66
2022/07/13 04:43:11;;;;;;;0.45;0.45;;;;;;;16.21;87.88;98059.49;1679262;84;20952;-65
2022/07/13 04:45:38;;;;;;;1.65;0.55;;;;;;;16.20;87.75;98061.36;1698576;84;20908;-67
2022/07/13 04:48:05;;;;;;;0.20;0.20;;;;;;;16.21;87.89;98070.23;1696577;84;20976;-68
2022/07/13 04:50:32;;;;;;;1.57;0.33;;;;;;;16.24;87.93;98073.77;1699266;84;21128;-68
2022/07/13 04:53:00;;;;;;;0.95;0.40;;;;;;;16.24;87.94;98063.04;1688654;84;21029;-65
2022/07/13 04:55:28;;;;;;;0.70;0.30;;;;;;;16.25;87.89;98072.18;1695107;84;20944;-66
2022/07/13 04:57:56;;;;;;;0.90;0.40;;;;;;;16.26;87.96;98073.00;1694614;84;21030;-67
2022/07/13 05:00:23;;;;;;;0.30;0.30;;;;;;;16.27;88.00;98069.27;1696064;84;20990;-67
2022/07/13 05:02:49;;;;;;;0.40;0.30;;;;;;;16.30;87.98;98076.81;1692875;84;21141;-66
2022/07/13 05:05:16;;;;;;;0.85;0.30;;;;;;;16.28;87.84;98074.91;1692462;84;20915;-66
2022/07/13 05:07:43;;;;;;;0.60;0.50;;;;;;;16.29;87.88;98077.89;1695190;84;20932;-66
2022/07/13 05:10:11;;;;;;;0.30;0.30;;;;;;;16.30;87.91;98072.80;1695494;84;20983;-67
2022/07/13 05:12:40;;;;;;;1.65;0.65;;;;;;;16.32;87.93;98079.55;1696258;84;21015;-67
2022/07/13 05:15:10;;;;;;;2.60;0.50;;;;;;;16.34;88.08;98082.01;1697355;84;21168;-68
2022/07/13 05:17:37;;;;;;;0.60;0.60;;;;;;;16.37;88.24;98070.80;1690418;84;20900;-67
2022/07/13 05:20:06;;;;;;;0.88;0.57;;;;;;;16.41;88.28;98071.93;1698530;84;20952;-68
2022/07/13 05:22:34;;;;;;;0.33;0.33;;;;;;;16.45;88.12;98067.73;1696792;84;21052;-68
2022/07/13 05:25:01;;;;;;;1.07;0.80;;;;;;;16.49;88.06;98078.25;1699505;84;20971;-65
2022/07/13 05:27:28;;;;;;;1.50;0.40;;;;;;;16.50;88.06;98074.52;1697044;84;21268;-66
2022/07/13 05:29:55;;;;;;;0.65;0.42;;;;;;;16.51;88.00;98068.91;1695005;84;20940;-66
2022/07/13 05:32:25;;;;;;;1.12;0.90;;;;;;;16.52;87.87;98073.75;1688779;84;20954;-67
2022/07/13 05:34:51;;;;;;;0.55;0.47;;;;;;;16.56;87.84;98084.30;1691624;84;20918;-67
2022/07/13 05:37:18;;;;;;;1.42;0.33;;;;;;;16.59;87.86;98079.80;1698162;84;21085;-67
2022/07/13 05:39:45;;;;;;;1.52;0.60;;;;;;;16.64;87.85;98086.59;1699226;84;21274;-68
2022/07/13 05:42:13;;;;;;;1.25;0.88;;;;;;;16.67;87.65;98090.14;1671010;84;20934;-67
2022/07/13 05:44:40;;;;;;;1.85;0.93;;;;;;;16.71;87.58;98087.28;1699304;84;21052;-66
2022/07/13 05:47:07;;;;;;;0.60;0.40;;;;;;;16.76;87.37;98094.60;1699242;84;21016;-66
2022/07/13 05:49:35;;;;;;;0.60;0.60;;;;;;;16.79;87.27;98094.13;1699181;84;21011;-63
2022/07/13 05:52:02;;;;;;;0.82;0.50;;;;;;;16.82;87.11;98083.69;1708804;83;21249;-67
2022/07/13 05:54:30;;;;;;;0.65;0.50;;;;;;;16.88;86.77;98084.59;1714192;83;21078;-67
2022/07/13 05:56:57;;;;;;;0.95;0.65;;;;;;;16.91;86.58;98091.64;1712394;83;20990;-67
2022/07/13 05:59:24;;;;;;;0.90;0.60;;;;;;;16.94;86.36;98079.07;1709431;83;20970;-68
2022/07/13 06:01:51;;;;;;;2.33;0.95;;;;;;;16.96;86.13;98082.31;1695927;83;21065;-68
2022/07/13 06:04:18;;;;;;;0.57;0.57;;;;;;;16.95;86.02;98084.70;1696043;83;21376;-66
2022/07/13 06:06:44;;;;;;;1.15;0.88;;;;;;;16.95;85.87;98087.39;1695958;83;20946;-66
2022/07/13 06:09:15;;;;;;;2.08;0.80;;;;;;;16.97;86.09;98089.85;1701226;83;21070;-65
2022/07/13 06:11:46;;;;;;;2.33;0.55;;;;;;;16.99;85.95;98086.39;1713581;83;20999;-67
2022/07/13 06:14:14;;;;;;;1.25;0.78;;;;;;;17.00;85.83;98090.68;1702110;83;21559;-66
2022/07/13 06:16:45;;;;;;;1.70;0.70;;;;;;;17.01;85.88;98094.48;1712378;83;21273;-66
2022/07/13 06:19:11;;;;;;;1.75;0.70;;;;;;;17.07;85.86;98094.04;1702597;83;21037;-67
2022/07/13 06:21:42;;;;;;;0.50;0.40;;;;;;;17.10;85.73;98084.15;1712929;83;20975;-67
2022/07/13 06:24:08;;;;;;;1.27;0.82;;;;;;;17.09;85.80;98090.58;1699809;83;20951;-66
2022/07/13 06:26:38;;;;;;;0.40;0.40;;;;;;;17.07;86.00;98088.14;1687314;83;21015;-66
2022/07/13 06:29:05;;;;;;;0.47;0.42;;;;;;;17.06;85.87;98093.74;1712863;83;21141;-66
2022/07/13 06:31:34;;;;;;;0.70;0.40;;;;;;;17.02;85.84;98089.41;1713717;83;20979;-67
2022/07/13 06:34:00;;;;;;;0.65;0.37;;;;;;;17.06;85.96;98089.72;1702146;83;21043;-66
2022/07/13 06:36:29;;;;;;;1.60;0.60;;;;;;;17.06;85.76;98084.34;1705551;83;20959;-66
2022/07/13 06:38:58;;;;;;;0.72;0.50;;;;;;;17.07;85.81;98090.83;1702592;83;21089;-64
2022/07/13 06:41:26;;;;;;;0.47;0.40;;;;;;;17.05;85.73;98095.61;1717020;83;21144;-66
2022/07/13 06:43:54;;;;;;;0.42;0.42;;;;;;;17.01;85.61;98092.33;1704957;83;20994;-64
2022/07/13 06:46:23;;;;;;;0.72;0.70;;;;;;;16.98;85.67;98097.66;1706243;83;21044;-67
2022/07/13 06:48:50;;;;;;;1.32;0.55;;;;;;;16.98;85.75;98102.20;1700022;83;21472;-67
2022/07/13 06:51:16;;;;;;;1.00;0.47;;;;;;;17.01;85.90;98100.38;1708348;83;20995;-67
2022/07/13 06:53:43;;;;;;;0.40;0.40;;;;;;;17.04;85.94;98102.06;1691014;84;21247;-70
2022/07/13 06:56:09;;;;;;;0.62;0.50;;;;;;;17.07;86.12;98091.36;1698689;84;20896;-66
2022/07/13 06:58:37;;;;;;;0.72;0.60;;;;;;;17.13;86.46;98103.27;1693358;84;20982;-67
2022/07/13 07:01:04;;;;;;;0.80;0.42;;;;;;;17.24;86.58;98098.34;1690807;84;21067;-68
2022/07/13 07:03:30;;;;;;;0.35;0.35;;;;;;;17.34;86.36;98097.66;1694635;84;21001;-64
2022/07/13 07:05:58;;;;;;;0.50;0.50;;;;;;;17.41;86.08;98091.61;1696173;84;22093;-65
2022/07/13 07:08:25;;;;;;;3.12;0.65;;;;;;;17.49;85.91;98102.47;1696618;84;21493;-65
2022/07/13 07:10:51;;;;;;;2.08;0.90;;;;;;;17.50;85.79;98099.52;1696847;84;21059;-65
2022/07/13 07:13:18;;;;;;;0.70;0.70;;;;;;;17.51;85.88;98103.03;1698264;84;21457;-65
2022/07/13 07:15:45;;;;;;;0.85;0.70;;;;;;;17.56;86.02;98105.81;1693835;84;20969;-65
2022/07/13 07:18:12;;;;;;;1.45;1.07;;;;;;;17.60;86.13;98103.72;1694300;84;21327;-66
2022/07/13 07:20:39;;;;;;;4.45;0.98;;;;;;;17.68;86.23;98105.17;1691727;84;21065;-66
2022/07/13 07:23:06;;;;;;;1.02;0.78;;;;;;;17.75;86.06;98104.48;1685072;84;21080;-65
2022/07/13 07:25:33;;;;;;;1.30;0.80;;;;;;;17.77;85.94;98109.07;1683503;84;21112;-67
2022/07/13 07:28:00;;;;;;;4.65;0.80;;;;;;;17.80;85.77;98113.95;1689558;84;20957;-65
2022/07/13 07:30:26;;;;;;;2.77;1.07;;;;;;;17.87;85.29;98111.89;1686412;83;21350;-65
2022/07/13 07:32:54;;;;;;;1.87;0.90;;;;;;;17.87;84.90;98112.70;1694697;84;21510;-64
2022/07/13 07:35:20;;;;;;;3.70;1.07;;;;;;;17.89;84.79;98109.75;1698009;83;21597;-66
2022/07/13 07:37:48;;;;;;;1.00;0.80;;;;;;;17.93;84.75;98114.94;1696731;84;21000;-65
2022/07/13 07:40:15;;;;;;;2.77;1.00;;;;;;;17.97;84.64;98113.36;1698865;84;21521;-65
2022/07/13 07:42:42;;;;;;;0.88;0.78;;;;;;;18.00;84.02;98120.11;1698692;84;22101;-66
2022/07/13 07:45:09;;;;;;;2.75;2.52;;;;;;;17.98;83.85;98120.91;1699623;83;21004;-66
2022/07/13 07:47:38;;;;;;;1.90;1.80;;;;;;;17.99;83.96;98119.85;1694514;84;20938;-66
2022/07/13 07:50:08;;;;;;;1.10;1.10;;;;;;;17.98;83.96;98112.30;1669497;84;21672;-66
2022/07/13 07:52:35;;;;;;;1.15;0.90;;;;;;;17.98;83.81;98121.72;1693964;84;21036;-67
2022/07/13 07:55:01;;;;;;;1.55;1.10;;;;;;;17.98;83.49;98131.14;1700453;84;21394;-67
2022/07/13 07:57:28;;;;;;;2.87;0.90;;;;;;;17.97;83.13;98125.99;1702697;84;21090;-66
2022/07/13 07:59:54;;;;;;;0.78;0.78;;;;;;;17.94;83.10;98131.34;1698717;84;21009;-66
2022/07/13 08:02:21;;;;;;;1.72;1.60;;;;;;;17.95;83.26;98114.14;1699687;84;21072;-67
2022/07/13 08:04:49;;;;;;;2.60;1.82;;;;;;;17.96;83.34;98127.07;1702418;84;20895;-67
2022/07/13 08:07:18;;;;;;;1.07;1.00;;;;;;;17.98;83.50;98128.97;1695463;84;21792;-67
2022/07/13 08:09:46;;;;;;;1.40;1.30;;;;;;;18.04;83.77;98127.42;1703074;84;20923;-67
2022/07/13 08:12:13;;;;;;;1.10;1.00;;;;;;;18.09;83.77;98135.59;1702223;84;21018;-68
2022/07/13 08:14:40;;;;;;;1.10;0.90;;;;;;;18.14;83.70;98135.66;1698687;84;21001;-66
2022/07/13 08:17:07;;;;;;;1.25;0.90;;;;;;;18.17;83.62;98139.16;1702185;84;20950;-65
2022/07/13 08:19:34;;;;;;;0.95;0.90;;;;;;;18.21;83.31;98134.10;1705133;83;21342;-65
2022/07/13 08:22:00;;;;;;;0.90;0.75;;;;;;;18.19;83.01;98145.13;1699232;84;20982;-68
2022/07/13 08:24:27;;;;;;;1.10;0.82;;;;;;;18.18;83.04;98146.19;1698866;84;20967;-69
2022/07/13 08:26:54;;;;;;;0.80;0.80;;;;;;;18.19;83.07;98148.35;1701999;84;20983;-70
2022/07/13 08:29:21;;;;;;;1.35;0.85;;;;;;;18.20;82.89;98148.61;1699560;84;21037;-66
2022/07/13 08:31:47;;;;;;;7.47;6.75;;;;;;;18.21;82.70;98147.03;1702721;84;21222;-66
2022/07/13 08:39:44;;;;;;;1.60;1.50;;;;;;;18.21;82.18;98153.77;1699770;84;20952;-68
2022/07/13 08:42:13;;;;;;;1.62;1.00;;;;;;;18.20;82.26;98156.16;1700683;84;21412;-66
2022/07/13 08:44:40;;;;;;;0.90;0.90;;;;;;;18.22;82.21;98156.75;1693178;83;21256;-70
2022/07/13 08:47:07;;;;;;;2.10;1.10;;;;;;;18.21;82.33;98160.49;1696725;84;20916;-68
2022/07/13 08:49:33;;;;;;;3.60;1.67;;;;;;;18.24;82.17;98164.56;1699178;84;20984;-67
2022/07/13 08:52:00;;;;;;;1.60;1.50;;;;;;;18.25;82.13;98162.16;1695256;84;21010;-69
2022/07/13 08:54:26;;;;;;;2.00;1.60;;;;;;;18.27;82.41;98164.06;1694608;84;20918;-69
2022/07/13 08:56:53;;;;;;;3.17;1.02;;;;;;;18.28;82.39;98157.59;1696286;84;21248;-67
2022/07/13 08:59:19;;;;;;;1.15;0.98;;;;;;;18.30;82.43;98167.61;1696286;83;20918;-68
2022/07/13 09:01:46;;;;;;;1.65;0.90;;;;;;;18.35;82.65;98175.73;1696217;84;20941;-66
2022/07/13 09:04:12;;;;;;;1.25;1.07;;;;;;;18.38;82.55;98174.69;1696217;84;20958;-66
2022/07/13 09:06:45;;;;;;;5.05;4.50;;;;;;;18.39;82.43;98180.89;1696238;84;21061;-69
2022/07/13 09:09:35;;;;;;;2.75;1.40;;;;;;;18.42;82.30;98182.56;1696217;84;21162;-67
2022/07/13 09:12:21;;;;;;;1.85;1.30;;;;;;;18.45;82.05;98185.28;1696050;84;21030;-66
2022/07/13 09:14:54;;;;;;;1.27;0.90;;;;;;;18.49;82.00;98189.11;1695988;84;20942;-68
2022/07/13 09:17:35;;;;;;;2.08;0.90;;;;;;;18.53;81.85;98196.16;1696160;84;37870;-65
2022/07/13 09:20:17;;;;;;;0.70;0.70;;;;;;;18.53;81.75;98193.47;1696232;84;20992;-66
2022/07/13 09:22:57;;;;;;;1.00;0.90;;;;;;;18.59;81.41;98197.86;1689440;84;21273;-65
2022/07/13 09:25:37;;;;;;;0.72;0.70;;;;;;;18.58;81.44;98194.35;1696088;84;20993;-68
2022/07/13 09:28:11;;;;;;;1.52;1.07;;;;;;;18.59;81.60;98201.34;1696226;84;21555;-65
2022/07/13 09:30:44;;;;;;;1.60;1.35;;;;;;;18.65;81.56;98192.79;1696140;84;21538;-67
2022/07/13 09:33:11;;;;;;;0.88;0.80;;;;;;;18.69;81.71;98200.14;1696178;84;21026;-65
2022/07/13 09:35:46;;;;;;;2.02;1.32;;;;;;;18.71;81.71;98202.56;1696172;84;21245;-69
2022/07/13 09:38:34;;;;;;;1.37;0.85;;;;;;;18.74;81.87;98207.45;1655349;86;21019;-66
2022/07/13 09:41:24;;;;;;;0.70;0.70;;;;;;;18.78;81.90;98206.69;1634227;86;21046;-65
2022/07/13 09:47:05;;;;;;;1.40;1.00;;;;;;;18.85;81.32;98211.89;1642921;87;20970;-66
2022/07/13 09:49:43;;;;;;;12.28;10.82;;;;;;;18.91;80.89;98213.55;1642792;87;21500;-66
2022/07/13 09:52:16;;;;;;;2.00;1.77;;;;;;;18.91;80.78;98224.33;1633543;87;21600;-66
2022/07/13 09:54:44;;;;;;;1.40;1.15;;;;;;;18.93;80.36;98222.19;1635705;86;21009;-66
2022/07/13 09:57:13;;;;;;;1.30;1.00;;;;;;;18.92;80.26;98228.66;1681377;84;20947;-66
2022/07/13 09:59:42;;;;;;;1.98;0.98;;;;;;;18.96;80.27;98233.28;1674045;84;21521;-66
2022/07/13 10:02:10;;;;;;;1.05;0.95;;;;;;;19.02;80.27;98234.16;1635367;87;21319;-66
2022/07/13 10:04:37;;;;;;;0.70;0.70;;;;;;;19.11;80.04;98233.43;1674369;84;20996;-66
2022/07/13 10:07:05;;;;;;;2.05;0.98;;;;;;;19.21;79.58;98242.70;1643491;87;21029;-66
2022/07/13 10:09:32;;;;;;;0.93;0.68;;;;;;;19.33;79.38;98246.86;1675483;84;21473;-66
2022/07/13 10:12:00;;;;;;;1.05;0.70;;;;;;;19.49;79.29;98252.70;1645288;87;21651;-66
2022/07/13 10:14:27;;;;;;;1.87;0.70;;;;;;;19.66;78.80;98243.93;1676553;84;21172;-66
2022/07/13 10:17:06;;;;;;;1.98;0.70;;;;;;;19.84;78.10;98244.05;1647310;87;20940;-66
2022/07/13 10:19:34;;;;;;;1.77;1.12;;;;;;;19.99;77.74;98254.16;1672711;84;22187;-66
2022/07/13 10:22:11;;;;;;;1.15;1.00;;;;;;;20.17;77.42;98248.33;1641620;87;20975;-66
2022/07/13 10:24:41;;;;;;;12.07;10.88;;;;;;;20.31;76.62;98255.73;1671396;84;21747;-66
2022/07/13 10:27:32;;;;;;;3.25;2.95;;;;;;;20.50;76.39;98243.94;1593471;87;21307;-66
2022/07/13 10:30:04;;;;;;;1.30;1.20;;;;;;;20.81;75.75;98244.33;1662766;86;20963;-65
2022/07/13 10:32:34;;;;;;;1.20;0.78;;;;;;;21.18;74.66;98234.72;1674730;84;21055;-66
2022/07/13 10:35:04;;;;;;;1.12;0.80;;;;;;;21.50;74.21;98241.25;1642085;87;20959;-66
2022/07/13 10:38:04;;;;;;;1.15;1.05;;;;;;;21.81;73.79;98229.34;1662850;85;20956;-66
2022/07/13 10:40:31;;;;;;;0.88;0.80;;;;;;;22.05;72.12;98236.38;1661055;85;21172;-65
2022/07/13 10:43:05;;;;;;;1.17;0.80;;;;;;;22.29;70.86;98240.66;1643230;87;20936;-65
2022/07/13 10:45:48;;;;;;;2.05;0.80;;;;;;;22.49;69.26;98242.76;1638812;85;21569;-65
2022/07/13 10:48:34;;;;;;;0.85;0.80;;;;;;;22.68;68.10;98248.41;1630177;86;21606;-66
2022/07/13 10:51:00;;;;;;;1.12;0.80;;;;;;;22.74;66.40;98260.84;1675295;84;20960;-66
2022/07/13 10:53:46;;;;;;;1.87;1.10;;;;;;;22.61;66.31;98263.57;1631790;86;21322;-66
2022/07/13 10:56:20;;;;;;;1.75;1.30;;;;;;;22.47;66.53;98274.75;1639084;87;26860;-65
2022/07/13 10:58:49;;;;;;;1.57;0.98;;;;;;;22.36;66.64;98275.85;1642885;87;20931;-66
2022/07/13 11:01:43;;;;;;;2.67;1.30;;;;;;;22.34;66.95;98278.56;1642741;86;21022;-65
2022/07/13 11:04:13;;;;;;;1.20;1.10;;;;;;;22.34;66.95;98278.56;1642867;87;20951;-66
2022/07/13 11:06:40;;;;;;;0.90;0.90;;;;;;;22.71;66.04;98270.34;1642841;86;21225;-66
2022/07/13 11:09:20;;;;;;;1.42;1.32;;;;;;;22.71;66.04;98270.34;1642700;87;21014;-66
2022/07/13 11:11:53;;;;;;;2.92;1.42;;;;;;;22.82;65.95;98276.53;1642909;87;20951;-64
2022/07/13 11:14:46;;;;;;;2.70;1.35;;;;;;;22.80;65.51;98276.00;1643002;87;20911;-64
2022/07/13 11:17:18;;;;;;;2.47;1.27;;;;;;;22.80;64.19;98286.03;1642856;87;21014;-67
2022/07/13 11:20:09;;;;;;;1.05;1.00;;;;;;;22.80;64.19;98286.03;1643057;87;21181;-66
2022/07/13 11:25:40;;;;;;;1.87;1.20;;;;;;;22.82;64.30;98290.62;1643272;87;21006;-66
2022/07/13 11:28:30;;;;;;;1.60;1.10;;;;;;;22.76;64.06;98290.39;1623680;87;21465;-66
2022/07/13 11:30:57;;;;;;;1.80;1.70;;;;;;;22.66;63.72;98293.94;1644238;87;20979;-66
2022/07/13 11:33:24;;;;;;;3.45;1.40;;;;;;;22.44;63.68;98294.80;1644497;84;21189;-66
2022/07/13 11:35:51;;;;;;;2.15;1.30;;;;;;;22.28;64.58;98294.55;1644603;84;20946;-66
2022/07/13 11:38:20;;;;;;;1.32;1.00;;;;;;;22.12;64.73;98303.25;1644543;84;21185;-70
2022/07/13 11:40:47;;;;;;;1.50;1.40;;;;;;;21.96;65.43;98309.22;1645490;85;20924;-70
2022/07/13 11:43:13;;;;;;;2.17;1.20;;;;;;;21.93;65.66;98295.40;1646130;84;21105;-67
2022/07/13 11:45:41;;;;;;;2.00;1.07;;;;;;;21.82;66.28;98290.49;1645224;87;21321;-65
2022/07/13 11:48:13;;;;;;;2.90;1.07;;;;;;;21.76;66.23;98303.78;1642910;87;21449;-66
2022/07/13 11:50:46;;;;;;;1.12;1.00;;;;;;;21.84;66.96;98295.13;1643626;85;20972;-66
2022/07/13 11:53:28;;;;;;;2.20;1.10;;;;;;;21.95;66.40;98302.16;1619184;88;21549;-66